Time;durP1;ratioP1;P1;durP2;ratioP2;P2;SDS_P1;SDS_P2;PMS_P1;PMS_P2;Temp;Humidity;BMP_temperature;BMP_pressure;BME280_temperature;BME280_humidity;BME280_pressure;Samples;Min_cycle;Max_cycle;Signal;HPM_P1;HPM_P2
2022/03/17 00:01:15;;;;;;;21.53;13.00;;;6.80;99.90;;;;;;5034528;28;20229;-69
2022/03/17 00:03:40;;;;;;;26.00;10.97;;;6.80;99.90;;;;;;5034315;28;20218;-69
2022/03/17 00:06:06;;;;;;;26.30;13.13;;;6.80;99.90;;;;;;5034326;28;20172;-70
2022/03/17 00:08:32;;;;;;;18.83;11.83;;;6.70;99.90;;;;;;5034561;28;20176;-69
2022/03/17 00:10:57;;;;;;;19.47;10.43;;;6.70;99.90;;;;;;5035128;28;20178;-68
2022/03/17 00:13:23;;;;;;;19.67;13.30;;;6.70;99.90;;;;;;5034520;28;20460;-69
2022/03/17 00:15:48;;;;;;;19.30;11.80;;;6.70;99.90;;;;;;5016777;28;20545;-69
2022/03/17 00:18:14;;;;;;;23.53;12.27;;;6.70;99.90;;;;;;5034974;28;20178;-69
2022/03/17 00:20:40;;;;;;;21.87;10.83;;;6.60;99.90;;;;;;5035921;28;20172;-69
2022/03/17 00:23:05;;;;;;;20.70;12.80;;;6.60;99.90;;;;;;5036521;28;20290;-69
2022/03/17 00:25:32;;;;;;;23.40;13.83;;;6.60;99.90;;;;;;5033481;28;20172;-69
2022/03/17 00:27:58;;;;;;;20.37;12.10;;;6.60;99.90;;;;;;5035276;28;20176;-69
2022/03/17 00:30:24;;;;;;;20.40;10.60;;;6.50;99.90;;;;;;5017881;28;20432;-69
2022/03/17 00:32:49;;;;;;;18.47;10.90;;;6.50;99.90;;;;;;5033693;28;20290;-69
2022/03/17 00:37:59;;;;;;;17.43;10.93;;;6.50;99.90;;;;;;5034079;28;20555;-69
2022/03/17 00:40:25;;;;;;;17.90;11.53;;;6.40;99.90;;;;;;5033717;28;20490;-69
2022/03/17 00:42:51;;;;;;;17.67;10.17;;;6.40;99.90;;;;;;5033223;28;20519;-69
2022/03/17 00:45:17;;;;;;;20.17;12.90;;;6.40;99.90;;;;;;5033331;28;20429;-69
2022/03/17 00:47:43;;;;;;;20.07;11.30;;;6.40;99.90;;;;;;5033554;28;20398;-69
2022/03/17 00:50:10;;;;;;;33.37;13.77;;;6.30;99.90;;;;;;5034051;28;20402;-69
2022/03/17 00:52:36;;;;;;;21.20;13.07;;;6.30;99.90;;;;;;5033989;28;20642;-69
2022/03/17 00:55:04;;;;;;;17.67;12.90;;;6.30;99.90;;;;;;5033690;28;20537;-69
2022/03/17 00:57:29;;;;;;;23.07;12.23;;;6.20;99.90;;;;;;5033821;28;20398;-69
2022/03/17 00:59:55;;;;;;;25.13;14.77;;;6.20;99.90;;;;;;5033664;28;20426;-69
2022/03/17 01:02:20;;;;;;;26.60;12.90;;;6.20;99.90;;;;;;5033160;28;20180;-69
2022/03/17 01:04:46;;;;;;;23.50;12.83;;;6.20;99.90;;;;;;5032979;28;20686;-70
2022/03/17 01:07:11;;;;;;;19.63;11.23;;;6.10;99.90;;;;;;5033397;28;20175;-69
2022/03/17 01:09:37;;;;;;;18.27;12.00;;;6.10;99.90;;;;;;5033341;28;20192;-69
2022/03/17 01:12:03;;;;;;;23.70;13.33;;;6.10;99.90;;;;;;5033326;28;20533;-69
2022/03/17 01:14:29;;;;;;;20.10;14.33;;;6.00;99.90;;;;;;5033026;28;20187;-69
2022/03/17 01:16:54;;;;;;;27.53;13.03;;;6.00;99.90;;;;;;5033070;28;20754;-69
2022/03/17 01:19:20;;;;;;;26.83;13.43;;;6.00;99.90;;;;;;5033287;28;20199;-69
2022/03/17 01:21:47;;;;;;;24.03;11.67;;;5.90;99.90;;;;;;5033202;28;20819;-69
2022/03/17 01:24:13;;;;;;;21.83;11.47;;;5.90;99.90;;;;;;5033559;28;20527;-69
2022/03/17 01:26:39;;;;;;;17.07;12.13;;;5.90;99.90;;;;;;5044472;28;20410;-69
2022/03/17 01:29:04;;;;;;;18.73;12.53;;;5.90;99.90;;;;;;5041575;28;20920;-68
2022/03/17 01:31:30;;;;;;;29.17;13.20;;;5.90;99.90;;;;;;5032916;28;20448;-69
2022/03/17 01:33:56;;;;;;;20.03;13.10;;;5.90;99.90;;;;;;5032702;28;20195;-69
2022/03/17 01:36:21;;;;;;;17.80;12.60;;;5.90;99.90;;;;;;5032678;28;20406;-69
2022/03/17 01:38:47;;;;;;;20.17;12.83;;;5.90;99.90;;;;;;5032845;28;20180;-68
2022/03/17 01:41:12;;;;;;;25.40;13.33;;;5.90;99.90;;;;;;5032860;28;20238;-68
2022/03/17 01:43:37;;;;;;;21.60;13.00;;;5.90;99.90;;;;;;5046471;22;20223;-71
2022/03/17 01:46:03;;;;;;;23.57;11.50;;;5.90;99.90;;;;;;5031958;28;20172;-71
2022/03/17 01:48:28;;;;;;;25.37;12.03;;;5.90;99.90;;;;;;5032550;28;20175;-71
2022/03/17 01:50:54;;;;;;;25.83;14.40;;;5.90;99.90;;;;;;5032682;28;20217;-71
2022/03/17 01:53:23;;;;;;;15.60;10.17;;;5.80;99.90;;;;;;5032371;28;20253;-71
2022/03/17 01:55:49;;;;;;;23.77;14.00;;;5.80;99.90;;;;;;5031052;28;20172;-71
2022/03/17 01:58:15;;;;;;;26.53;16.03;;;5.80;99.90;;;;;;5032327;28;20410;-71
2022/03/17 02:00:42;;;;;;;19.73;13.40;;;5.90;99.90;;;;;;5032424;28;20403;-71
2022/03/17 02:03:08;;;;;;;22.73;13.37;;;5.80;99.90;;;;;;5032394;28;20476;-71
2022/03/17 02:05:34;;;;;;;24.60;14.87;;;5.80;99.90;;;;;;5032146;28;20410;-70
2022/03/17 02:08:00;;;;;;;24.60;13.37;;;5.80;99.90;;;;;;5032448;28;20441;-71
2022/03/17 02:10:25;;;;;;;24.20;14.17;;;5.80;99.90;;;;;;5032256;28;20455;-71
2022/03/17 02:13:10;;;;;;;25.90;14.27;;;5.80;99.90;;;;;;5032287;28;20501;-71
2022/03/17 02:15:35;;;;;;;21.60;14.27;;;5.70;99.90;;;;;;5032375;28;20735;-71
2022/03/17 02:18:03;;;;;;;24.83;12.77;;;5.70;99.90;;;;;;5032006;28;20434;-71
2022/03/17 02:20:28;;;;;;;26.03;14.70;;;5.70;99.90;;;;;;5032022;28;20164;-71
2022/03/17 02:25:33;;;;;;;24.07;13.33;;;5.70;99.90;;;;;;5031865;28;20437;-71
2022/03/17 02:25:52;;;;;;;25.57;14.63;;;5.70;99.90;;;;;;5031481;28;20176;-71
2022/03/17 02:28:18;;;;;;;20.43;13.80;;;5.70;99.90;;;;;;5031874;28;20938;-71
2022/03/17 02:30:45;;;;;;;19.50;12.37;;;5.70;99.90;;;;;;5031989;28;20398;-71
2022/03/17 02:33:12;;;;;;;26.70;16.23;;;5.70;99.90;;;;;;5031517;28;20409;-71
2022/03/17 02:35:39;;;;;;;24.93;17.57;;;5.70;99.90;;;;;;5031689;28;20493;-71
2022/03/17 02:38:06;;;;;;;21.43;15.47;;;5.70;99.90;;;;;;5031686;28;20460;-71
2022/03/17 02:40:36;;;;;;;23.43;14.17;;;5.60;99.90;;;;;;5031608;28;20418;-71
2022/03/17 02:43:05;;;;;;;21.53;15.70;;;5.60;99.90;;;;;;5031550;28;20429;-71
2022/03/17 02:45:31;;;;;;;20.10;13.90;;;5.60;99.90;;;;;;5031373;28;20460;-71
2022/03/17 02:47:57;;;;;;;31.20;15.73;;;5.60;99.90;;;;;;5031315;28;20520;-71
2022/03/17 02:50:23;;;;;;;29.77;16.33;;;5.60;99.90;;;;;;5031671;28;20448;-71
2022/03/17 02:52:48;;;;;;;20.03;12.00;;;5.60;99.90;;;;;;5031408;28;20172;-71
2022/03/17 02:55:15;;;;;;;24.80;15.10;;;5.50;99.90;;;;;;5031478;28;20813;-71
2022/03/17 02:57:47;;;;;;;27.33;15.17;;;5.50;99.90;;;;;;5030706;28;20171;-71
2022/03/17 03:00:14;;;;;;;29.73;15.20;;;5.50;99.90;;;;;;5030659;28;20420;-71
2022/03/17 03:02:42;;;;;;;23.97;12.80;;;5.50;99.90;;;;;;5031285;28;20842;-71
2022/03/17 03:05:09;;;;;;;22.50;13.57;;;5.50;99.90;;;;;;5031156;28;20590;-71
2022/03/17 03:07:35;;;;;;;33.47;14.63;;;5.50;99.90;;;;;;5031377;28;20478;-71
2022/03/17 03:10:01;;;;;;;29.30;14.77;;;5.50;99.90;;;;;;5031414;28;20457;-71
2022/03/17 03:12:26;;;;;;;23.13;13.07;;;5.40;99.90;;;;;;5031253;28;20812;-71
2022/03/17 03:14:52;;;;;;;26.03;13.83;;;5.40;99.90;;;;;;5031262;28;20314;-71
2022/03/17 03:17:18;;;;;;;27.87;16.67;;;5.40;99.90;;;;;;5031499;28;20168;-71
2022/03/17 03:19:43;;;;;;;29.60;13.43;;;5.40;99.90;;;;;;5031364;28;20496;-71
2022/03/17 03:22:09;;;;;;;27.80;14.47;;;5.40;99.90;;;;;;5031178;28;20430;-71
2022/03/17 03:24:36;;;;;;;26.20;14.63;;;5.40;99.90;;;;;;5030957;28;20612;-71
2022/03/17 03:27:02;;;;;;;25.10;13.60;;;5.40;99.90;;;;;;5031158;28;20163;-71
2022/03/17 03:29:28;;;;;;;28.57;16.73;;;5.40;99.90;;;;;;5031312;28;20422;-71
2022/03/17 03:31:59;;;;;;;21.03;12.83;;;5.40;99.90;;;;;;5031109;28;20403;-71
2022/03/17 03:34:26;;;;;;;29.40;17.20;;;5.40;99.90;;;;;;5031028;28;20198;-71
2022/03/17 03:39:36;;;;;;;25.27;14.57;;;5.40;99.90;;;;;;5031332;28;20443;-71
2022/03/17 03:42:03;;;;;;;25.93;15.73;;;5.40;99.90;;;;;;5031017;28;20398;-71
2022/03/17 03:44:29;;;;;;;23.37;13.90;;;5.40;99.90;;;;;;5030616;28;20353;-71
2022/03/17 03:46:54;;;;;;;18.50;15.07;;;5.40;99.90;;;;;;5030994;28;20600;-71
2022/03/17 03:49:20;;;;;;;34.53;16.77;;;5.40;99.90;;;;;;5030990;28;20168;-71
2022/03/17 03:51:45;;;;;;;32.03;15.37;;;5.40;99.90;;;;;;5030915;28;20171;-71
2022/03/17 03:54:14;;;;;;;32.00;16.10;;;5.40;99.90;;;;;;5030715;28;20198;-71
2022/03/17 03:56:40;;;;;;;29.90;17.07;;;5.40;99.90;;;;;;5030843;28;20178;-71
2022/03/17 03:59:13;;;;;;;33.13;15.97;;;5.40;99.90;;;;;;5030903;28;20417;-71
2022/03/17 04:01:38;;;;;;;23.37;14.80;;;5.40;99.90;;;;;;5013077;28;20422;-71
2022/03/17 04:04:04;;;;;;;23.53;14.60;;;5.40;99.90;;;;;;5030703;28;20516;-71
2022/03/17 04:06:31;;;;;;;28.07;15.07;;;5.30;99.90;;;;;;5030705;28;20168;-71
2022/03/17 04:08:56;;;;;;;27.17;14.83;;;5.30;99.90;;;;;;5033031;28;20214;-71
2022/03/17 04:11:22;;;;;;;28.20;15.90;;;5.30;99.90;;;;;;5034332;28;20406;-71
2022/03/17 04:13:47;;;;;;;26.00;18.40;;;5.30;99.90;;;;;;5016427;28;20192;-71
2022/03/17 04:16:13;;;;;;;29.60;14.97;;;5.30;99.90;;;;;;5016345;28;20252;-71
2022/03/17 04:18:38;;;;;;;24.50;14.50;;;5.30;99.90;;;;;;5034251;28;20626;-71
2022/03/17 04:21:04;;;;;;;31.10;17.77;;;5.30;99.90;;;;;;5034157;28;20692;-71
2022/03/17 04:23:29;;;;;;;31.10;16.53;;;5.20;99.90;;;;;;5033828;28;20235;-71
2022/03/17 04:25:54;;;;;;;24.73;14.90;;;5.20;99.90;;;;;;5034076;28;20167;-71
2022/03/17 04:28:20;;;;;;;27.77;16.70;;;5.20;99.90;;;;;;5016291;28;20172;-71
2022/03/17 04:30:45;;;;;;;31.30;15.90;;;5.20;99.90;;;;;;5033938;28;20263;-71
2022/03/17 04:33:11;;;;;;;27.93;17.77;;;5.20;99.90;;;;;;5033881;28;20172;-71
2022/03/17 04:35:37;;;;;;;26.37;14.80;;;5.20;99.90;;;;;;5033827;28;20640;-71
2022/03/17 04:38:02;;;;;;;24.00;14.40;;;5.20;99.90;;;;;;5033705;28;20493;-71
2022/03/17 04:40:28;;;;;;;27.93;14.40;;;5.20;99.90;;;;;;5033890;28;20515;-71
2022/03/17 04:42:53;;;;;;;25.00;16.53;;;5.10;99.90;;;;;;5033931;28;20176;-71
2022/03/17 04:45:19;;;;;;;26.37;19.20;;;5.10;99.90;;;;;;5033462;28;20222;-71
2022/03/17 04:47:45;;;;;;;25.80;15.90;;;5.10;99.90;;;;;;5033795;28;20178;-71
2022/03/17 04:50:10;;;;;;;25.87;14.23;;;5.10;99.90;;;;;;5033834;28;20164;-71
2022/03/17 04:55:20;;;;;;;28.27;16.73;;;5.10;99.90;;;;;;5033580;28;20689;-71
2022/03/17 04:57:46;;;;;;;26.90;17.37;;;5.10;99.90;;;;;;5033943;28;20411;-71
2022/03/17 05:00:12;;;;;;;39.00;16.13;;;5.10;99.90;;;;;;5033586;28;20411;-71
2022/03/17 05:02:38;;;;;;;29.63;16.47;;;5.10;99.90;;;;;;5033256;28;20176;-71
2022/03/17 05:05:04;;;;;;;26.80;16.67;;;5.10;99.90;;;;;;5033083;28;20462;-71
2022/03/17 05:07:29;;;;;;;26.57;16.90;;;5.00;99.90;;;;;;5033425;28;20164;-71
2022/03/17 05:09:54;;;;;;;29.63;15.40;;;5.10;99.90;;;;;;5033312;28;20406;-71
2022/03/17 05:12:20;;;;;;;24.37;14.63;;;5.00;99.90;;;;;;5033466;28;20496;-71
2022/03/17 05:14:45;;;;;;;28.30;15.50;;;5.00;99.90;;;;;;5033135;28;20195;-71
2022/03/17 05:17:11;;;;;;;27.10;17.40;;;5.10;99.90;;;;;;5033374;28;20259;-71
2022/03/17 05:19:36;;;;;;;31.43;14.57;;;5.10;99.90;;;;;;5032170;28;20190;-71
2022/03/17 05:22:02;;;;;;;23.40;17.70;;;5.10;99.90;;;;;;5033098;28;20686;-71
2022/03/17 05:24:28;;;;;;;26.90;16.23;;;5.00;99.90;;;;;;5033059;28;20207;-71
2022/03/17 05:26:57;;;;;;;26.97;16.03;;;5.00;99.90;;;;;;5032983;28;20394;-71
2022/03/17 05:29:23;;;;;;;27.70;17.67;;;5.00;99.90;;;;;;5015120;28;20438;-71
2022/03/17 05:31:48;;;;;;;25.83;17.43;;;5.10;99.90;;;;;;5033324;28;20456;-71
2022/03/17 05:34:14;;;;;;;27.23;16.20;;;5.00;99.90;;;;;;5032856;28;20250;-71
2022/03/17 05:36:39;;;;;;;30.27;18.33;;;5.00;99.90;;;;;;5033114;28;20203;-71
2022/03/17 05:39:05;;;;;;;22.20;16.17;;;5.00;99.90;;;;;;5033044;28;20183;-71
2022/03/17 05:41:30;;;;;;;27.40;15.50;;;5.00;99.90;;;;;;5032870;28;20179;-71
2022/03/17 05:43:56;;;;;;;31.43;18.03;;;5.00;99.90;;;;;;5032415;28;20649;-71
2022/03/17 05:46:25;;;;;;;38.93;20.77;;;5.00;99.90;;;;;;5032574;28;20164;-71
2022/03/17 05:48:51;;;;;;;27.20;16.10;;;5.00;99.90;;;;;;5032640;28;20174;-71
2022/03/17 05:51:16;;;;;;;25.63;16.00;;;5.00;99.90;;;;;;5032697;28;20407;-71
2022/03/17 05:53:42;;;;;;;25.67;17.17;;;5.00;99.90;;;;;;5032766;28;20469;-71
2022/03/17 05:56:08;;;;;;;36.03;19.57;;;5.10;99.90;;;;;;5032427;28;20179;-71
2022/03/17 05:58:33;;;;;;;32.80;21.13;;;5.00;99.90;;;;;;5032578;28;20202;-71
2022/03/17 06:00:59;;;;;;;30.97;18.90;;;5.00;99.90;;;;;;5032522;28;20176;-70
2022/03/17 06:03:25;;;;;;;36.33;20.40;;;5.10;99.90;;;;;;5032277;28;20433;-70
2022/03/17 06:05:50;;;;;;;32.90;19.23;;;5.10;99.90;;;;;;5032219;28;20409;-70
2022/03/17 06:08:16;;;;;;;32.00;18.80;;;5.10;99.90;;;;;;5032338;28;20178;-70
2022/03/17 06:10:41;;;;;;;37.77;19.50;;;5.10;99.90;;;;;;5032153;28;20599;-70
2022/03/17 06:13:07;;;;;;;31.53;21.20;;;5.20;99.90;;;;;;5032041;28;20222;-70
2022/03/17 06:15:34;;;;;;;33.77;19.07;;;5.20;99.90;;;;;;5032026;28;20156;-70
2022/03/17 06:18:03;;;;;;;28.00;16.40;;;5.20;99.90;;;;;;5031876;28;20438;-70
2022/03/17 06:20:30;;;;;;;39.73;21.50;;;5.20;99.90;;;;;;5032224;28;20398;-70
2022/03/17 06:22:58;;;;;;;33.37;20.00;;;5.20;99.90;;;;;;5031964;28;20407;-70
2022/03/17 06:25:31;;;;;;;27.03;16.33;;;5.30;99.90;;;;;;5032021;28;20434;-70
2022/03/17 06:27:57;;;;;;;35.40;18.53;;;5.30;99.90;;;;;;5032469;28;20491;-72
2022/03/17 06:30:26;;;;;;;33.70;18.10;;;5.30;99.90;;;;;;5031893;28;20474;-70
2022/03/17 06:32:52;;;;;;;34.97;18.33;;;5.30;99.90;;;;;;5031818;28;20168;-71
2022/03/17 06:35:23;;;;;;;35.30;20.30;;;5.30;99.90;;;;;;5031952;28;20882;-71
2022/03/17 06:37:52;;;;;;;31.93;18.23;;;5.30;99.90;;;;;;5031864;28;20391;-70
2022/03/17 06:40:18;;;;;;;30.67;17.23;;;5.50;99.90;;;;;;5032018;28;20537;-70
2022/03/17 06:42:45;;;;;;;31.90;20.10;;;5.40;99.90;;;;;;5032218;28;20481;-71
2022/03/17 06:45:11;;;;;;;30.57;16.40;;;5.40;99.90;;;;;;5031847;28;20458;-71
2022/03/17 06:47:37;;;;;;;34.37;18.13;;;5.50;99.90;;;;;;5031857;28;20402;-70
2022/03/17 06:50:04;;;;;;;34.40;21.37;;;5.60;99.90;;;;;;5031822;28;20178;-72
2022/03/17 06:52:29;;;;;;;30.03;17.23;;;5.60;99.90;;;;;;5031921;28;20436;-71
2022/03/17 06:54:54;;;;;;;40.27;22.97;;;5.60;99.90;;;;;;5031559;28;20437;-71
2022/03/17 06:57:21;;;;;;;44.43;20.97;;;5.60;99.90;;;;;;5031654;28;20172;-71
2022/03/17 06:59:48;;;;;;;28.20;17.80;;;5.60;99.90;;;;;;5032054;28;20515;-70
2022/03/17 07:02:14;;;;;;;32.03;18.60;;;5.70;99.90;;;;;;5031782;28;20465;-71
2022/03/17 07:04:40;;;;;;;34.93;19.20;;;5.70;99.90;;;;;;5031428;28;20465;-70
2022/03/17 07:07:06;;;;;;;30.77;19.57;;;5.70;99.90;;;;;;5031541;28;20506;-70
2022/03/17 07:09:32;;;;;;;35.03;21.70;;;5.70;99.90;;;;;;5013642;28;20175;-70
2022/03/17 07:11:57;;;;;;;40.10;22.10;;;5.90;99.90;;;;;;5031298;28;20452;-70
2022/03/17 07:14:23;;;;;;;40.87;19.77;;;6.00;99.90;;;;;;5031205;28;20196;-71
2022/03/17 07:16:48;;;;;;;38.00;20.90;;;6.00;99.90;;;;;;5031244;28;20210;-71
2022/03/17 07:19:13;;;;;;;48.10;23.40;;;6.00;99.90;;;;;;5031358;28;20171;-71
2022/03/17 07:21:39;;;;;;;33.70;20.50;;;6.10;99.90;;;;;;5031187;28;20171;-71
2022/03/17 07:24:08;;;;;;;32.70;18.70;;;6.20;99.90;;;;;;5031027;28;20207;-71
2022/03/17 07:26:33;;;;;;;35.93;20.63;;;6.20;99.90;;;;;;5031135;28;20451;-70
2022/03/17 07:29:01;;;;;;;33.30;18.33;;;6.30;99.90;;;;;;5031162;28;20412;-70
2022/03/17 07:31:26;;;;;;;35.03;21.07;;;6.30;99.90;;;;;;5031034;28;20167;-71
2022/03/17 07:33:53;;;;;;;40.43;21.30;;;6.30;99.90;;;;;;5031150;28;20434;-70
2022/03/17 07:36:19;;;;;;;37.00;21.33;;;6.30;99.90;;;;;;5031147;28;20175;-71
2022/03/17 07:38:45;;;;;;;33.43;19.13;;;6.40;99.90;;;;;;5031105;28;20858;-71
2022/03/17 07:41:10;;;;;;;35.17;23.23;;;6.50;99.90;;;;;;5031091;28;20493;-71
2022/03/17 07:46:03;;;;;;;32.00;20.60;;;6.40;99.90;;;;;;5031995;28;20219;-68
2022/03/17 07:48:29;;;;;;;40.00;20.83;;;6.40;99.90;;;;;;5034798;28;20440;-68
2022/03/17 07:50:54;;;;;;;36.60;20.33;;;6.40;99.90;;;;;;5032702;28;20164;-66
2022/03/17 07:53:20;;;;;;;38.97;22.07;;;6.50;99.90;;;;;;5029371;28;20172;-66
2022/03/17 07:55:47;;;;;;;39.60;20.37;;;6.50;99.90;;;;;;5009432;28;20180;-68
2022/03/17 07:58:13;;;;;;;28.60;18.17;;;6.60;99.90;;;;;;5014234;28;20224;-66
2022/03/17 08:00:39;;;;;;;37.93;19.93;;;6.80;99.90;;;;;;5015337;28;20585;-67
2022/03/17 08:03:05;;;;;;;33.60;19.37;;;6.90;99.90;;;;;;5013975;28;20527;-66
2022/03/17 08:05:31;;;;;;;32.20;21.40;;;6.90;99.90;;;;;;5014189;28;20517;-66
2022/03/17 08:07:56;;;;;;;36.33;20.93;;;6.90;99.90;;;;;;5015140;28;20186;-66
2022/03/17 08:10:22;;;;;;;33.70;19.57;;;7.00;99.90;;;;;;4996103;28;20184;-67
2022/03/17 08:12:48;;;;;;;40.83;22.40;;;6.90;99.90;;;;;;5013738;28;20180;-66
2022/03/17 08:15:14;;;;;;;36.83;21.13;;;7.00;99.90;;;;;;5014046;28;20204;-67
2022/03/17 08:17:39;;;;;;;38.30;20.50;;;7.10;99.90;;;;;;5013741;28;20865;-67
2022/03/17 08:20:05;;;;;;;35.57;19.30;;;7.30;99.90;;;;;;5013568;28;20184;-67
2022/03/17 08:22:32;;;;;;;40.30;21.67;;;7.30;99.90;;;;;;5013558;28;20180;-66
2022/03/17 08:24:57;;;;;;;34.50;20.20;;;7.40;99.90;;;;;;5014501;28;20461;-66
2022/03/17 08:27:23;;;;;;;32.30;19.13;;;7.50;99.90;;;;;;5013819;28;20510;-68
2022/03/17 08:29:48;;;;;;;30.30;19.67;;;7.60;99.90;;;;;;5013715;28;20183;-69
2022/03/17 08:32:14;;;;;;;33.53;20.27;;;7.50;99.90;;;;;;5024453;28;20180;-66
2022/03/17 08:34:40;;;;;;;34.90;20.97;;;7.60;99.90;;;;;;5032984;28;20257;-68
2022/03/17 08:37:05;;;;;;;33.80;18.80;;;7.80;99.90;;;;;;5033320;28;20603;-69
2022/03/17 08:39:31;;;;;;;38.03;22.57;;;7.80;99.90;;;;;;5033456;28;20172;-66
2022/03/17 08:41:56;;;;;;;38.70;20.80;;;7.80;99.90;;;;;;5032755;28;20180;-67
2022/03/17 08:44:23;;;;;;;36.73;21.40;;;7.90;99.90;;;;;;5032564;28;20213;-66
2022/03/17 08:49:33;;;;;;;31.57;16.67;;;7.70;99.90;;;;;;5033299;28;20461;-67
2022/03/17 08:52:00;;;;;;;39.47;19.77;;;7.80;99.90;;;;;;5032456;28;20422;-64
2022/03/17 08:54:28;;;;;;;35.23;19.67;;;7.90;99.90;;;;;;5031073;28;20232;-65
2022/03/17 08:56:59;;;;;;;38.70;19.77;;;7.90;99.90;;;;;;5032710;28;20489;-67
2022/03/17 08:59:31;;;;;;;33.27;16.37;;;8.10;99.90;;;;;;5035605;28;20407;-66
2022/03/17 09:02:04;;;;;;;34.70;18.93;;;8.20;99.90;;;;;;5044002;28;20455;-66
2022/03/17 09:04:30;;;;;;;31.43;15.40;;;8.40;99.90;;;;;;5051967;28;20475;-66
2022/03/17 09:06:59;;;;;;;34.73;19.30;;;8.30;99.90;;;;;;5052313;28;20405;-66
2022/03/17 09:09:33;;;;;;;38.97;19.93;;;8.20;99.90;;;;;;5052441;28;20166;-66
2022/03/17 09:12:00;;;;;;;31.10;17.37;;;8.20;99.90;;;;;;5052554;28;20857;-67
2022/03/17 09:14:26;;;;;;;40.13;18.33;;;8.10;99.90;;;;;;5052107;28;20430;-66
2022/03/17 09:16:52;;;;;;;30.93;17.97;;;8.20;99.90;;;;;;5052260;28;20523;-66
2022/03/17 09:19:21;;;;;;;34.10;17.73;;;8.50;99.90;;;;;;5046115;28;20405;-67
2022/03/17 09:21:47;;;;;;;32.90;18.90;;;8.50;99.90;;;;;;5032813;28;20413;-66
2022/03/17 09:24:13;;;;;;;35.97;18.83;;;8.50;99.90;;;;;;5032566;28;20557;-66
2022/03/17 09:26:39;;;;;;;28.63;18.67;;;8.60;99.90;;;;;;5032700;28;20938;-66
2022/03/17 09:29:04;;;;;;;30.40;18.17;;;8.50;99.90;;;;;;5032754;28;20176;-66
2022/03/17 09:31:30;;;;;;;30.87;17.10;;;8.60;99.90;;;;;;5032670;28;20260;-66
2022/03/17 09:33:56;;;;;;;31.90;17.07;;;8.70;99.90;;;;;;5032485;28;20197;-66
2022/03/17 09:36:22;;;;;;;29.43;17.47;;;8.80;99.90;;;;;;5032513;28;20478;-67
2022/03/17 09:39:39;;;;;;;31.53;21.10;;;8.90;99.90;;;;;;5032451;28;20673;-67
2022/03/17 09:41:35;;;;;;;28.13;18.30;;;8.80;99.90;;;;;;5032555;28;20455;-66
2022/03/17 09:44:02;;;;;;;35.50;17.70;;;8.80;99.90;;;;;;5032596;28;20498;-67
2022/03/17 09:46:28;;;;;;;32.57;17.40;;;9.00;99.90;;;;;;5032636;28;20897;-66
2022/03/17 09:48:55;;;;;;;37.80;17.53;;;9.00;99.90;;;;;;5032830;28;20827;-66
2022/03/17 09:51:25;;;;;;;31.53;18.33;;;9.00;99.90;;;;;;5032337;28;20442;-68
2022/03/17 09:53:58;;;;;;;36.60;23.67;;;9.20;99.90;;;;;;5032056;28;20424;-66
2022/03/17 09:56:24;;;;;;;24.27;17.30;;;9.10;99.90;;;;;;5032210;28;20467;-66
2022/03/17 09:58:51;;;;;;;31.37;16.63;;;9.30;99.90;;;;;;5031935;28;20411;-66
2022/03/17 10:01:18;;;;;;;28.93;18.40;;;9.20;99.90;;;;;;5031985;28;20420;-66
2022/03/17 10:03:44;;;;;;;34.27;17.53;;;9.40;99.90;;;;;;5032175;28;20462;-67
2022/03/17 10:06:10;;;;;;;32.47;16.37;;;9.50;99.90;;;;;;5030272;28;20919;-66
2022/03/17 10:08:38;;;;;;;33.80;18.40;;;9.50;99.90;;;;;;5030411;28;20171;-66
2022/03/17 10:11:03;;;;;;;26.77;16.97;;;9.50;99.90;;;;;;5032096;28;20768;-66
2022/03/17 10:13:29;;;;;;;32.13;18.03;;;9.70;99.90;;;;;;5031829;28;20414;-66
2022/03/17 10:16:11;;;;;;;32.80;19.10;;;9.70;99.90;;;;;;5031669;28;20607;-67
2022/03/17 10:18:37;;;;;;;27.90;17.57;;;9.90;99.90;;;;;;5031795;28;20264;-68
2022/03/17 10:21:16;;;;;;;27.93;16.70;;;10.00;99.90;;;;;;5031763;28;20509;-69
2022/03/17 10:24:08;;;;;;;29.10;16.53;;;10.10;99.90;;;;;;5031408;28;20511;-66
2022/03/17 10:26:42;;;;;;;31.13;17.57;;;10.10;99.90;;;;;;5031700;28;20413;-68
2022/03/17 10:29:20;;;;;;;32.07;18.87;;;10.20;99.90;;;;;;5031738;28;20411;-67
2022/03/17 10:32:06;;;;;;;26.53;17.03;;;10.30;99.90;;;;;;5031552;28;20409;-68
2022/03/17 10:34:36;;;;;;;29.73;18.90;;;10.40;99.90;;;;;;5031238;28;20801;-67
2022/03/17 10:37:07;;;;;;;32.97;19.27;;;10.50;99.90;;;;;;5031963;28;20406;-67
2022/03/17 10:39:47;;;;;;;36.77;20.63;;;10.70;99.90;;;;;;5031570;28;20802;-67
2022/03/17 10:42:15;;;;;;;31.37;17.27;;;10.70;99.90;;;;;;5031457;28;20407;-67
2022/03/17 10:44:45;;;;;;;27.07;16.03;;;10.80;99.90;;;;;;5031323;28;20470;-67
2022/03/17 10:47:11;;;;;;;27.67;17.80;;;10.80;99.90;;;;;;5031714;28;20553;-67
2022/03/17 10:49:37;;;;;;;32.03;18.37;;;10.90;99.90;;;;;;5031637;28;20442;-67
2022/03/17 10:52:03;;;;;;;28.90;19.17;;;10.90;99.90;;;;;;5031162;28;20164;-67
2022/03/17 10:54:29;;;;;;;30.17;17.93;;;11.00;99.90;;;;;;5031189;28;20438;-67
2022/03/17 10:57:09;;;;;;;32.07;18.03;;;11.20;99.90;;;;;;5031305;28;20425;-67
2022/03/17 10:59:44;;;;;;;29.63;17.10;;;11.00;99.90;;;;;;5031616;28;20270;-67
2022/03/17 11:02:17;;;;;;;37.80;18.87;;;11.10;99.90;;;;;;5031059;28;20406;-67
2022/03/17 11:04:44;;;;;;;32.80;18.50;;;11.00;99.90;;;;;;5030909;28;20458;-67
2022/03/17 11:07:13;;;;;;;29.17;17.13;;;11.30;99.90;;;;;;5031085;28;20971;-67
2022/03/17 11:09:40;;;;;;;31.10;17.37;;;11.40;99.90;;;;;;5031109;28;20786;-67
2022/03/17 11:12:07;;;;;;;31.77;18.07;;;11.50;99.90;;;;;;5031074;28;20411;-67
2022/03/17 11:14:34;;;;;;;33.63;19.77;;;11.30;99.90;;;;;;5030953;28;20449;-67
2022/03/17 11:17:03;;;;;;;28.03;18.53;;;11.40;99.90;;;;;;5031086;28;20976;-67
2022/03/17 11:19:29;;;;;;;30.43;18.53;;;11.40;99.90;;;;;;5034360;28;20947;-67
2022/03/17 11:22:09;;;;;;;25.63;17.67;;;11.60;99.90;;;;;;5035231;28;20531;-67
2022/03/17 11:24:35;;;;;;;22.43;16.80;;;11.60;99.90;;;;;;5035260;28;20472;-67
2022/03/17 11:27:09;;;;;;;27.07;19.10;;;11.70;99.90;;;;;;5035523;28;20429;-67
2022/03/17 11:29:47;;;;;;;26.77;17.03;;;11.60;99.90;;;;;;5035304;28;20418;-67
2022/03/17 11:32:29;;;;;;;26.00;17.60;;;11.70;99.90;;;;;;5035071;28;20900;-67
2022/03/17 11:35:15;;;;;;;28.33;17.83;;;11.60;99.90;;;;;;5035462;28;20430;-67
2022/03/17 11:37:41;;;;;;;22.03;16.23;;;11.70;99.90;;;;;;5035089;28;20413;-67
2022/03/17 11:40:09;;;;;;;24.57;18.20;;;11.70;99.90;;;;;;5035190;28;20903;-67
2022/03/17 11:42:36;;;;;;;25.33;16.87;;;11.50;99.90;;;;;;5035133;28;20179;-67
2022/03/17 11:45:14;;;;;;;24.17;16.70;;;11.50;99.90;;;;;;5034718;28;20508;-67
2022/03/17 11:47:55;;;;;;;26.13;15.47;;;11.50;99.90;;;;;;5035365;28;20432;-67
2022/03/17 11:50:25;;;;;;;23.47;15.70;;;11.60;99.90;;;;;;5035461;28;20406;-67
2022/03/17 11:53:01;;;;;;;28.37;15.17;;;11.40;99.90;;;;;;5035199;28;20410;-67
2022/03/17 11:55:34;;;;;;;29.50;18.10;;;11.50;99.90;;;;;;5034319;28;20479;-67
2022/03/17 11:58:47;;;;;;;25.33;16.77;;;11.70;99.90;;;;;;5034842;28;20417;-67
2022/03/17 12:01:23;;;;;;;30.00;18.60;;;11.70;99.90;;;;;;5034502;28;20406;-67
2022/03/17 12:03:58;;;;;;;26.07;16.63;;;11.60;99.90;;;;;;5034186;28;20523;-67
2022/03/17 12:06:25;;;;;;;24.60;14.67;;;11.70;99.90;;;;;;5034184;28;20405;-67
2022/03/17 12:08:59;;;;;;;23.77;15.00;;;11.90;99.90;;;;;;5031803;28;20518;-67
2022/03/17 12:11:27;;;;;;;27.93;16.20;;;11.90;99.90;;;;;;5029566;28;20413;-68
2022/03/17 12:14:25;;;;;;;25.80;16.73;;;12.00;99.90;;;;;;5031558;28;20851;-67
2022/03/17 12:16:58;;;;;;;26.47;15.60;;;12.00;99.90;;;;;;4971928;28;20423;-67
2022/03/17 12:19:30;;;;;;;20.67;14.90;;;12.20;99.90;;;;;;5014275;28;20411;-67
2022/03/17 12:22:00;;;;;;;24.63;14.27;;;12.20;99.90;;;;;;5014288;28;20415;-67
2022/03/17 12:24:35;;;;;;;25.37;14.90;;;12.30;99.90;;;;;;5014322;28;20463;-67
2022/03/17 12:27:29;;;;;;;19.70;14.90;;;12.30;99.90;;;;;;5015830;28;20415;-66
2022/03/17 12:30:11;;;;;;;27.90;17.80;;;12.50;99.90;;;;;;5016493;28;20400;-67
2022/03/17 12:32:45;;;;;;;70.97;38.63;;;12.60;99.90;;;;;;5034056;28;20402;-65
2022/03/17 12:35:12;;;;;;;39.00;21.23;;;12.40;99.90;;;;;;5033573;28;20466;-66
2022/03/17 12:37:39;;;;;;;29.17;16.20;;;12.50;99.90;;;;;;5033746;28;20465;-66
2022/03/17 12:40:14;;;;;;;25.53;16.40;;;12.30;99.90;;;;;;5033603;28;20406;-68
2022/03/17 12:42:41;;;;;;;29.90;17.17;;;12.30;99.90;;;;;;5031680;28;20422;-66
2022/03/17 12:45:12;;;;;;;22.40;15.80;;;12.30;99.90;;;;;;5033497;28;20520;-66
2022/03/17 12:47:40;;;;;;;24.47;16.07;;;12.20;99.90;;;;;;5033504;28;20470;-66
2022/03/17 12:50:14;;;;;;;20.10;16.23;;;12.30;99.90;;;;;;5033387;28;20417;-66
2022/03/17 12:52:42;;;;;;;25.60;15.87;;;12.20;99.90;;;;;;5033232;28;20409;-66